Time,TemperatureF,DewpointF,PressureIn,WindDirection,WindDirectionDegrees,WindSpeedMPH,WindSpeedGustMPH,Humidity,HourlyPrecipIn,Conditions,Clouds,dailyrainin,SolarRadiationWatts/m^2,SoftwareType,DateUTC
2013-01-30 00:00:00,70.0,62.8,29.50,SSE,165,6.0,28.0,78,0.00,,,0.00,0,Wunderground v.1.15,2013-01-30 06:00:00,
2013-01-30 00:10:00,70.2,63.0,29.49,SSE,167,7.0,7.0,78,0.00,,,0.00,0,Wunderground v.1.15,2013-01-30 06:10:00,
2013-01-30 00:20:00,70.3,63.1,29.49,South,177,6.0,6.0,78,0.00,,,0.00,0,Wunderground v.1.15,2013-01-30 06:20:00,
2013-01-30 00:30:00,70.4,62.8,29.49,SSW,196,6.0,28.0,77,0.00,,,0.00,0,Wunderground v.1.15,2013-01-30 06:30:00,
2013-01-30 00:40:00,70.5,62.9,29.48,SSE,161,6.0,6.0,77,0.00,,,0.00,0,Wunderground v.1.15,2013-01-30 06:40:00,
2013-01-30 00:50:00,70.4,62.8,29.49,SSW,194,6.0,28.0,77,0.00,,,0.00,0,Wunderground v.1.15,2013-01-30 06:50:00,
2013-01-30 01:00:00,70.4,62.8,29.47,South,170,6.0,19.0,77,0.00,,,0.00,0,Wunderground v.1.15,2013-01-30 07:00:00,
2013-01-30 01:10:00,70.4,62.8,29.47,SSW,195,7.0,19.0,77,0.00,,,0.00,0,Wunderground v.1.15,2013-01-30 07:10:00,
2013-01-30 01:20:00,70.5,62.6,29.46,SSW,196,6.0,6.0,76,0.00,,,0.00,0,Wunderground v.1.15,2013-01-30 07:20:00,
2013-01-30 01:30:00,70.5,62.6,29.46,SE,134,5.0,19.0,76,0.00,,,0.00,0,Wunderground v.1.15,2013-01-30 07:30:00,
2013-01-30 01:40:00,70.8,62.5,29.44,SW,235,7.0,19.0,75,0.00,,,0.00,0,Wunderground v.1.15,2013-01-30 07:40:00,
2013-01-30 01:50:00,71.0,62.3,29.44,SSE,163,7.0,7.0,74,0.00,,,0.00,0,Wunderground v.1.15,2013-01-30 07:50:00,
2013-01-30 02:00:00,71.2,62.5,29.43,SE,131,6.0,20.0,74,0.00,,,0.00,0,Wunderground v.1.15,2013-01-30 08:00:00,
2013-01-30 05:40:00,53.3,52.5,29.51,SSW,208,0.0,20.0,97,0.13,,,0.01,0,Wunderground v.1.15,2013-01-30 11:40:00,
2013-01-30 05:50:00,53.2,52.4,29.52,SSE,150,1.0,1.0,97,0.16,,,0.03,0,Wunderground v.1.15,2013-01-30 11:50:00,
2013-01-30 06:00:00,53.2,52.4,29.53,South,169,0.0,0.0,97,0.11,,,0.05,0,Wunderground v.1.15,2013-01-30 12:00:00,
2013-01-30 06:10:00,53.2,52.4,29.51,SW,215,1.0,1.0,97,0.07,,,0.07,0,Wunderground v.1.15,2013-01-30 12:10:00,
2013-01-30 06:20:00,53.1,52.3,29.50,SSE,166,1.0,1.0,97,0.08,,,0.08,0,Wunderground v.1.15,2013-01-30 12:20:00,
2013-01-30 06:30:00,53.0,52.2,29.51,SSW,199,0.0,0.0,97,0.16,,,0.10,0,Wunderground v.1.15,2013-01-30 12:30:00,
2013-01-30 06:40:00,52.9,52.1,29.50,ESE,119,0.0,1.0,97,0.09,,,0.12,0,Wunderground v.1.15,2013-01-30 12:40:00,
2013-01-30 06:50:00,52.8,52.0,29.50,ESE,119,1.0,1.0,97,0.04,,,0.12,0,Wunderground v.1.15,2013-01-30 12:50:00,
2013-01-30 07:00:00,52.8,52.0,29.50,ESE,114,0.0,1.0,97,0.00,,,0.13,0,Wunderground v.1.15,2013-01-30 13:00:00,
2013-01-30 07:10:00,52.8,52.3,29.50,ESE,118,1.0,1.0,98,0.13,,,0.15,0,Wunderground v.1.15,2013-01-30 13:10:00,
2013-01-30 07:20:00,52.8,52.3,29.52,ESE,121,2.0,3.0,98,0.06,,,0.16,0,Wunderground v.1.15,2013-01-30 13:20:00,
2013-01-30 07:30:00,52.8,52.3,29.52,SSE,157,1.0,1.0,98,0.10,,,0.18,0,Wunderground v.1.15,2013-01-30 13:30:00,
2013-01-30 07:40:00,52.5,51.7,29.50,SSW,194,2.0,2.0,97,0.07,,,0.19,5,Wunderground v.1.15,2013-01-30 13:40:00,
2013-01-30 07:50:00,52.3,51.5,29.48,ESE,106,2.0,3.0,97,0.05,,,0.19,5,Wunderground v.1.15,2013-01-30 13:50:00,
2013-01-30 08:00:00,52.2,51.4,29.51,South,169,2.0,2.0,97,0.00,,,0.19,9,Wunderground v.1.15,2013-01-30 14:00:00,
2013-01-30 08:10:00,52.1,51.3,29.50,SSW,193,1.0,1.0,97,0.00,,,0.19,9,Wunderground v.1.15,2013-01-30 14:10:00,
2013-01-30 08:20:00,52.0,51.2,29.50,SSW,200,1.0,1.0,97,0.00,,,0.19,12,Wunderground v.1.15,2013-01-30 14:20:00,
2013-01-30 08:30:00,52.0,51.2,29.49,South,175,1.0,1.0,97,0.00,,,0.19,39,Wunderground v.1.15,2013-01-30 14:30:00,
2013-01-30 08:40:00,52.0,51.2,29.47,South,169,1.0,1.0,97,0.00,,,0.19,23,Wunderground v.1.15,2013-01-30 14:40:00,
2013-01-30 08:50:00,52.0,51.2,29.47,SW,217,1.0,1.0,97,0.00,,,0.19,47,Wunderground v.1.15,2013-01-30 14:50:00,
2013-01-30 09:00:00,52.0,51.2,29.48,South,182,1.0,1.0,97,0.00,,,0.19,56,Wunderground v.1.15,2013-01-30 15:00:00,
2013-01-30 09:10:00,52.2,51.4,29.49,SSW,196,0.0,0.0,97,0.00,,,0.19,72,Wunderground v.1.15,2013-01-30 15:10:00,
2013-01-30 09:20:00,52.3,51.2,29.49,SSW,209,1.0,1.0,96,0.00,,,0.19,46,Wunderground v.1.15,2013-01-30 15:20:00,
2013-01-30 09:30:00,52.4,51.3,29.50,SSW,202,1.0,1.0,96,0.00,,,0.19,54,Wunderground v.1.15,2013-01-30 15:30:00,
2013-01-30 09:40:00,52.8,51.7,29.50,South,186,2.0,2.0,96,0.00,,,0.19,93,Wunderground v.1.15,2013-01-30 15:40:00,
2013-01-30 09:50:00,52.9,51.5,29.52,SSE,160,2.0,2.0,95,0.00,,,0.19,49,Wunderground v.1.15,2013-01-30 15:50:00,
2013-01-30 10:00:00,52.9,51.5,29.49,SSW,192,1.0,1.0,95,0.00,,,0.19,49,Wunderground v.1.15,2013-01-30 16:00:00,
2013-01-30 10:10:00,52.9,51.2,29.48,WSW,242,1.0,4.0,94,0.00,,,0.19,123,Wunderground v.1.15,2013-01-30 16:10:00,
2013-01-30 10:20:00,53.1,51.4,29.48,SW,234,2.0,2.0,94,0.00,,,0.19,56,Wunderground v.1.15,2013-01-30 16:20:00,
2013-01-30 10:30:00,53.2,50.6,29.48,South,189,2.0,2.0,91,0.00,,,0.19,148,Wunderground v.1.15,2013-01-30 16:30:00,
2013-01-30 10:40:00,53.5,50.9,29.49,SSW,195,1.0,1.0,91,0.00,,,0.19,81,Wunderground v.1.15,2013-01-30 16:40:00,
2013-01-30 10:50:00,53.9,50.7,29.48,West,265,3.0,5.0,89,0.00,,,0.19,104,Wunderground v.1.15,2013-01-30 16:50:00,
2013-01-30 11:00:00,54.2,50.4,29.48,SSW,207,3.0,3.0,87,0.00,,,0.19,141,Wunderground v.1.15,2013-01-30 17:00:00,
2013-01-30 11:10:00,54.5,50.7,29.48,SW,224,2.0,2.0,87,0.00,,,0.19,125,Wunderground v.1.15,2013-01-30 17:10:00,
2013-01-30 11:20:00,54.9,50.8,29.47,South,183,2.0,5.0,86,0.00,,,0.19,204,Wunderground v.1.15,2013-01-30 17:20:00,
2013-01-30 11:30:00,55.5,51.1,29.45,WSW,257,3.0,4.0,85,0.00,,,0.19,327,Wunderground v.1.15,2013-01-30 17:30:00,
2013-01-30 11:40:00,55.9,50.8,29.45,SW,219,3.0,5.0,83,0.00,,,0.19,190,Wunderground v.1.15,2013-01-30 17:40:00,
2013-01-30 11:50:00,55.8,50.1,29.45,SSE,168,3.0,3.0,81,0.00,,,0.19,153,Wunderground v.1.15,2013-01-30 17:50:00,
2013-01-30 12:00:00,55.8,50.1,29.48,WSW,244,2.0,2.0,81,0.00,,,0.00,76,Wunderground v.1.15,2013-01-30 18:00:00,
2013-01-30 12:10:00,55.7,49.6,29.46,WSW,257,2.0,9.0,80,0.00,,,0.00,111,Wunderground v.1.15,2013-01-30 18:10:00,
2013-01-30 12:20:00,55.8,49.4,29.46,SW,215,3.0,3.0,79,0.00,,,0.00,192,Wunderground v.1.15,2013-01-30 18:20:00,
2013-01-30 12:30:00,56.4,49.3,29.46,WSW,242,2.0,2.0,77,0.00,,,0.00,366,Wunderground v.1.15,2013-01-30 18:30:00,
2013-01-30 12:40:00,56.5,49.0,29.46,SW,218,3.0,3.0,76,0.00,,,0.00,255,Wunderground v.1.15,2013-01-30 18:40:00,
2013-01-30 12:50:00,56.2,48.7,29.46,West,279,4.0,5.0,76,0.00,,,0.00,135,Wunderground v.1.15,2013-01-30 18:50:00,
2013-01-30 13:00:00,55.8,48.7,29.45,SW,224,3.0,6.0,77,0.00,,,0.00,139,Wunderground v.1.15,2013-01-30 19:00:00,
2013-01-30 13:10:00,55.6,47.8,29.45,West,277,3.0,4.0,75,0.00,,,0.00,128,Wunderground v.1.15,2013-01-30 19:10:00,
2013-01-30 13:20:00,55.7,48.9,29.46,WSW,252,4.0,6.0,78,0.00,,,0.00,200,Wunderground v.1.15,2013-01-30 19:20:00,
2013-01-30 13:30:00,55.8,48.0,29.45,SW,219,4.0,7.0,75,0.00,,,0.00,139,Wunderground v.1.15,2013-01-30 19:30:00,
2013-01-30 13:40:00,55.7,47.9,29.45,WSW,254,3.0,4.0,75,0.00,,,0.00,125,Wunderground v.1.15,2013-01-30 19:40:00,
2013-01-30 13:50:00,55.6,47.4,29.43,SSW,210,4.0,4.0,74,0.00,,,0.00,135,Wunderground v.1.15,2013-01-30 19:50:00,
2013-01-30 14:00:00,55.4,47.2,29.44,WSW,246,3.0,3.0,74,0.00,,,0.00,121,Wunderground v.1.15,2013-01-30 20:00:00,
2013-01-30 14:10:00,55.2,47.1,29.43,West,273,2.0,2.0,74,0.00,,,0.00,69,Wunderground v.1.15,2013-01-30 20:10:00,
2013-01-30 14:20:00,54.9,47.1,29.44,SW,235,3.0,5.0,75,0.00,,,0.00,118,Wunderground v.1.15,2013-01-30 20:20:00,
2013-01-30 14:30:00,55.0,47.2,29.43,WSW,257,4.0,4.0,75,0.00,,,0.00,178,Wunderground v.1.15,2013-01-30 20:30:00,
2013-01-30 14:40:00,55.1,46.6,29.42,SSW,192,3.0,3.0,73,0.00,,,0.00,155,Wunderground v.1.15,2013-01-30 20:40:00,
2013-01-30 14:50:00,55.0,46.5,29.42,SW,231,3.0,3.0,73,0.00,,,0.00,111,Wunderground v.1.15,2013-01-30 20:50:00,
2013-01-30 15:00:00,54.8,46.7,29.44,WSW,250,4.0,4.0,74,0.00,,,0.00,111,Wunderground v.1.15,2013-01-30 21:00:00,
2013-01-30 15:10:00,54.7,46.2,29.44,SW,233,3.0,6.0,73,0.00,,,0.00,37,Wunderground v.1.15,2013-01-30 21:10:00,
2013-01-30 15:20:00,53.9,47.2,29.45,WSW,239,3.0,3.0,78,0.00,,,0.01,21,Wunderground v.1.15,2013-01-30 21:20:00,
2013-01-30 15:30:00,51.3,46.0,29.46,SW,223,3.0,5.0,82,0.23,,,0.05,14,Wunderground v.1.15,2013-01-30 21:30:00,
2013-01-30 15:40:00,48.5,44.2,29.47,West,262,7.0,11.0,85,0.06,,,0.06,39,Wunderground v.1.15,2013-01-30 21:40:00,
2013-01-30 15:50:00,46.9,44.1,29.50,NW,304,6.0,6.0,90,0.00,,,0.06,14,Wunderground v.1.15,2013-01-30 21:50:00,
2013-01-30 16:00:00,44.9,41.9,29.50,WNW,286,8.0,8.0,89,0.00,,,0.07,16,Wunderground v.1.15,2013-01-30 22:00:00,
2013-01-30 16:10:00,43.9,41.2,29.52,South,188,8.0,8.0,90,0.04,,,0.08,11,Wunderground v.1.15,2013-01-30 22:10:00,
2013-01-30 16:20:00,43.4,40.9,29.52,West,259,6.0,8.0,91,0.04,,,0.08,7,Wunderground v.1.15,2013-01-30 22:20:00,
2013-01-30 16:30:00,43.0,40.6,29.52,West,280,6.0,6.0,91,0.00,,,0.08,5,Wunderground v.1.15,2013-01-30 22:30:00,
2013-01-30 16:40:00,42.7,39.4,29.53,NW,306,7.0,12.0,88,0.00,,,0.08,16,Wunderground v.1.15,2013-01-30 22:40:00,
2013-01-30 16:50:00,42.3,37.8,29.55,WSW,240,8.0,8.0,84,0.00,,,0.08,14,Wunderground v.1.15,2013-01-30 22:50:00,
2013-01-30 17:00:00,42.2,37.7,29.55,West,273,6.0,7.0,84,0.00,,,0.08,9,Wunderground v.1.15,2013-01-30 23:00:00,
2013-01-30 17:10:00,42.1,37.9,29.57,SW,235,6.0,7.0,85,0.00,,,0.08,5,Wunderground v.1.15,2013-01-30 23:10:00,
2013-01-30 17:20:00,42.0,37.8,29.57,WSW,257,5.0,7.0,85,0.00,,,0.08,5,Wunderground v.1.15,2013-01-30 23:20:00,
2013-01-30 17:30:00,41.8,37.3,29.56,West,259,5.0,5.0,84,0.00,,,0.08,0,Wunderground v.1.15,2013-01-30 23:30:00,
2013-01-30 17:40:00,41.7,36.6,29.58,SSW,209,5.0,5.0,82,0.00,,,0.08,0,Wunderground v.1.15,2013-01-30 23:40:00,
2013-01-30 17:50:00,41.7,36.0,29.58,West,267,6.0,10.0,80,0.00,,,0.08,0,Wunderground v.1.15,2013-01-30 23:50:00,
2013-01-30 18:00:00,41.5,35.5,29.58,WSW,237,5.0,5.0,79,0.00,,,0.08,0,Wunderground v.1.15,2013-01-31 00:00:00,
2013-01-30 18:10:00,41.2,33.5,29.60,West,259,8.0,8.0,74,0.00,,,0.08,0,Wunderground v.1.15,2013-01-31 00:10:00,
2013-01-30 18:20:00,41.0,33.3,29.62,WNW,286,6.0,7.0,74,0.00,,,0.08,0,Wunderground v.1.15,2013-01-31 00:20:00,
2013-01-30 18:30:00,40.6,31.9,29.63,West,265,9.0,9.0,71,0.00,,,0.08,0,Wunderground v.1.15,2013-01-31 00:30:00,
2013-01-30 18:40:00,40.2,31.9,29.64,WSW,248,9.0,17.0,72,0.00,,,0.08,0,Wunderground v.1.15,2013-01-31 00:40:00,
2013-01-30 18:50:00,39.6,31.0,29.65,West,275,8.0,8.0,71,0.00,,,0.08,0,Wunderground v.1.15,2013-01-31 00:50:00,
2013-01-30 19:00:00,39.2,30.9,29.66,WNW,290,6.0,6.0,72,0.00,,,0.08,0,Wunderground v.1.15,2013-01-31 01:00:00,
2013-01-30 19:10:00,38.8,29.8,29.68,WSW,258,5.0,5.0,70,0.00,,,0.08,0,Wunderground v.1.15,2013-01-31 01:10:00,
2013-01-30 19:20:00,38.4,29.1,29.69,WNW,297,7.0,7.0,69,0.00,,,0.08,0,Wunderground v.1.15,2013-01-31 01:20:00,
2013-01-30 19:30:00,37.9,29.0,29.69,NW,304,9.0,10.0,70,0.00,,,0.08,0,Wunderground v.1.15,2013-01-31 01:30:00,
2013-01-30 19:40:00,37.7,29.1,29.70,West,264,8.0,8.0,71,0.00,,,0.08,0,Wunderground v.1.15,2013-01-31 01:40:00,
2013-01-30 19:50:00,37.3,28.1,29.71,WNW,288,7.0,9.0,69,0.00,,,0.08,0,Wunderground v.1.15,2013-01-31 01:50:00,
2013-01-30 20:00:00,37.0,27.1,29.71,NW,311,8.0,8.0,67,0.00,,,0.08,0,Wunderground v.1.15,2013-01-31 02:00:00,
2013-01-30 20:10:00,36.8,26.1,29.72,NW,323,9.0,9.0,65,0.00,,,0.08,0,Wunderground v.1.15,2013-01-31 02:10:00,
2013-01-30 20:20:00,36.6,26.7,29.73,West,259,7.0,7.0,67,0.00,,,0.08,0,Wunderground v.1.15,2013-01-31 02:20:00,
2013-01-30 20:30:00,36.4,26.1,29.74,SW,233,7.0,9.0,66,0.00,,,0.08,0,Wunderground v.1.15,2013-01-31 02:30:00,
2013-01-30 20:40:00,36.3,26.4,29.75,WNW,285,7.0,7.0,67,0.00,,,0.08,0,Wunderground v.1.15,2013-01-31 02:40:00,
2013-01-30 20:50:00,36.1,27.3,29.77,West,273,6.0,6.0,70,0.00,,,0.08,0,Wunderground v.1.15,2013-01-31 02:50:00,
2013-01-30 21:00:00,35.8,26.6,29.77,WSW,244,8.0,8.0,69,0.00,,,0.08,0,Wunderground v.1.15,2013-01-31 03:00:00,
2013-01-30 21:10:00,35.5,26.3,29.78,WNW,286,6.0,6.0,69,0.00,,,0.08,0,Wunderground v.1.15,2013-01-31 03:10:00,
2013-01-30 21:20:00,35.3,26.1,29.79,WSW,248,5.0,8.0,69,0.00,,,0.08,0,Wunderground v.1.15,2013-01-31 03:20:00,
2013-01-30 21:30:00,35.2,25.3,29.80,WNW,292,8.0,8.0,67,0.00,,,0.08,0,Wunderground v.1.15,2013-01-31 03:30:00,
2013-01-30 21:40:00,35.0,25.1,29.81,West,259,8.0,8.0,67,0.00,,,0.08,0,Wunderground v.1.15,2013-01-31 03:40:00,
2013-01-30 21:50:00,34.9,24.7,29.82,SW,226,7.0,11.0,66,0.00,,,0.08,0,Wunderground v.1.15,2013-01-31 03:50:00,
2013-01-30 22:00:00,34.8,25.0,29.82,WNW,293,7.0,7.0,67,0.00,,,0.08,0,Wunderground v.1.15,2013-01-31 04:00:00,
2013-01-30 22:10:00,34.7,24.9,29.83,West,275,7.0,7.0,67,0.00,,,0.08,0,Wunderground v.1.15,2013-01-31 04:10:00,
2013-01-30 22:20:00,34.7,25.6,29.84,WSW,238,4.0,5.0,69,0.00,,,0.08,0,Wunderground v.1.15,2013-01-31 04:20:00,
2013-01-30 22:30:00,34.7,25.6,29.84,WSW,254,5.0,9.0,69,0.00,,,0.08,0,Wunderground v.1.15,2013-01-31 04:30:00,
2013-01-30 22:40:00,34.7,25.6,29.85,NW,304,6.0,8.0,69,0.00,,,0.08,0,Wunderground v.1.15,2013-01-31 04:40:00,
2013-01-30 22:50:00,34.7,25.6,29.85,West,277,5.0,5.0,69,0.00,,,0.08,0,Wunderground v.1.15,2013-01-31 04:50:00,
2013-01-30 23:10:00,34.6,25.8,29.87,West,259,5.0,8.0,70,0.00,,,0.08,0,Wunderground v.1.15,2013-01-31 05:10:00,
2013-01-30 23:20:00,34.4,25.6,29.87,West,275,6.0,6.0,70,0.00,,,0.08,0,Wunderground v.1.15,2013-01-31 05:20:00,
2013-01-30 23:30:00,34.3,25.5,29.88,West,271,6.0,6.0,70,0.00,,,0.08,0,Wunderground v.1.15,2013-01-31 05:30:00,
2013-01-30 23:40:00,34.2,25.8,29.88,West,265,5.0,5.0,71,0.00,,,0.08,0,Wunderground v.1.15,2013-01-31 05:40:00,
2013-01-30 23:50:00,34.1,25.7,29.89,WNW,294,7.0,7.0,71,0.00,,,0.08,0,Wunderground v.1.15,2013-01-31 05:50:00,